Time,TemperatureF,DewpointF,PressureIn,WindDirection,WindDirectionDegrees,WindSpeedMPH,WindSpeedGustMPH,Humidity,HourlyPrecipIn,Conditions,Clouds,dailyrainin,SoftwareType,DateUTC
2013-07-22 00:01:00,75.7,60.4,29.91,SW,225,0.0,0.0,59,0.00,,,0.00,VWS V14.01,2013-07-22 04:01:00,
2013-07-22 00:06:00,75.7,60.4,29.91,SW,225,0.0,0.0,59,0.00,,,0.00,VWS V14.01,2013-07-22 04:06:00,
2013-07-22 00:11:00,75.7,60.9,29.91,SW,225,0.0,0.0,60,0.00,,,0.00,VWS V14.01,2013-07-22 04:11:00,
2013-07-22 00:16:00,75.6,60.7,29.91,SW,225,0.0,0.0,60,0.00,,,0.00,VWS V14.01,2013-07-22 04:16:00,
2013-07-22 00:17:00,75.6,60.7,29.91,SW,225,0.0,0.0,60,0.00,,,0.00,VWS V14.01,2013-07-22 04:17:00,
2013-07-22 00:21:00,75.6,60.7,29.91,SW,225,0.0,0.0,60,0.00,,,0.00,VWS V14.01,2013-07-22 04:21:00,
2013-07-22 00:22:00,75.6,60.7,29.91,SW,225,0.0,0.0,60,0.00,,,0.00,VWS V14.01,2013-07-22 04:22:00,
2013-07-22 00:26:00,75.6,60.7,29.91,SW,225,0.0,0.0,60,0.00,,,0.00,VWS V14.01,2013-07-22 04:26:00,
2013-07-22 00:27:00,75.6,60.7,29.91,SW,225,0.0,0.0,60,0.00,,,0.00,VWS V14.01,2013-07-22 04:27:00,
2013-07-22 00:31:00,75.4,60.5,29.91,SW,225,0.0,0.0,60,0.00,,,0.00,VWS V14.01,2013-07-22 04:31:00,
2013-07-22 00:32:00,75.4,60.5,29.91,SW,225,0.0,0.0,60,0.00,,,0.00,VWS V14.01,2013-07-22 04:32:00,
2013-07-22 00:37:00,75.4,61.0,29.91,SW,225,0.0,0.0,61,0.00,,,0.00,VWS V14.01,2013-07-22 04:37:00,
2013-07-22 00:42:00,75.4,61.0,29.91,SW,225,0.0,0.0,61,0.00,,,0.00,VWS V14.01,2013-07-22 04:42:00,
2013-07-22 00:47:00,75.6,61.2,29.91,SW,225,0.0,0.0,61,0.00,,,0.00,VWS V14.01,2013-07-22 04:47:00,
2013-07-22 00:52:00,75.4,61.0,29.91,NE,45,1.3,1.3,61,0.00,,,0.00,VWS V14.01,2013-07-22 04:52:00,
2013-07-22 00:53:00,75.4,61.0,29.91,NE,45,1.3,1.3,61,0.00,,,0.00,VWS V14.01,2013-07-22 04:53:00,
2013-07-22 00:57:00,75.4,60.5,29.91,NE,45,0.0,0.0,60,0.00,,,0.00,VWS V14.01,2013-07-22 04:57:00,
2013-07-22 00:58:00,75.4,60.5,29.91,NE,45,0.0,0.0,60,0.00,,,0.00,VWS V14.01,2013-07-22 04:58:00,
2013-07-22 01:02:00,75.2,60.4,29.91,NE,45,0.0,0.0,60,0.00,,,0.00,VWS V14.01,2013-07-22 05:02:00,
2013-07-22 01:03:00,75.2,60.4,29.91,NE,45,0.0,0.0,60,0.00,,,0.00,VWS V14.01,2013-07-22 05:03:00,
2013-07-22 01:08:00,75.2,60.8,29.91,NE,45,0.0,1.1,61,0.00,,,0.00,VWS V14.01,2013-07-22 05:08:00,
2013-07-22 01:10:00,75.2,60.8,29.91,ENE,68,0.0,0.0,61,0.00,,,0.00,VWS V14.01,2013-07-22 05:10:00,
2013-07-22 01:13:00,75.2,60.8,29.91,NNE,22,0.0,0.0,61,0.00,,,0.00,VWS V14.01,2013-07-22 05:13:00,
2013-07-22 01:14:00,75.2,60.8,29.91,NE,45,0.0,0.0,61,0.00,,,0.00,VWS V14.01,2013-07-22 05:14:00,
2013-07-22 01:15:00,75.2,60.8,29.91,NE,45,0.0,0.0,61,0.00,,,0.00,VWS V14.01,2013-07-22 05:15:00,
2013-07-22 01:18:00,75.0,60.7,29.91,NE,45,0.0,1.6,61,0.00,,,0.00,VWS V14.01,2013-07-22 05:18:00,
2013-07-22 01:19:00,75.0,60.7,29.91,ENE,68,2.2,2.2,61,0.00,,,0.00,VWS V14.01,2013-07-22 05:19:00,
2013-07-22 01:20:00,75.0,60.7,29.91,ENE,68,0.0,0.0,61,0.00,,,0.00,VWS V14.01,2013-07-22 05:20:00,
2013-07-22 01:23:00,75.0,60.7,29.91,ENE,68,0.0,0.0,61,0.00,,,0.00,VWS V14.01,2013-07-22 05:23:00,
2013-07-22 01:24:00,75.0,60.7,29.91,NE,45,0.0,0.0,61,0.00,,,0.00,VWS V14.01,2013-07-22 05:24:00,
2013-07-22 01:25:00,75.0,60.7,29.91,NE,45,0.0,0.0,61,0.00,,,0.00,VWS V14.01,2013-07-22 05:25:00,
2013-07-22 01:28:00,75.0,61.1,29.91,NNE,22,0.9,0.9,62,0.00,,,0.00,VWS V14.01,2013-07-22 05:28:00,
2013-07-22 01:29:00,75.0,61.1,29.91,NNE,22,0.9,0.9,62,0.00,,,0.00,VWS V14.01,2013-07-22 05:29:00,
2013-07-22 01:30:00,75.0,61.1,29.91,NNE,22,0.0,0.0,62,0.00,,,0.00,VWS V14.01,2013-07-22 05:30:00,
2013-07-22 01:33:00,75.0,61.1,29.91,NE,45,0.0,0.0,62,0.00,,,0.00,VWS V14.01,2013-07-22 05:33:00,
2013-07-22 01:34:00,75.0,61.1,29.91,West,270,0.0,0.0,62,0.00,,,0.00,VWS V14.01,2013-07-22 05:34:00,
2013-07-22 01:35:00,75.0,61.1,29.91,SSW,202,0.0,0.0,62,0.00,,,0.00,VWS V14.01,2013-07-22 05:35:00,
2013-07-22 01:38:00,75.0,61.1,29.91,SSW,202,0.0,0.0,62,0.00,,,0.00,VWS V14.01,2013-07-22 05:38:00,
2013-07-22 01:39:00,75.0,61.1,29.91,SSW,202,0.0,0.0,62,0.00,,,0.00,VWS V14.01,2013-07-22 05:39:00,
2013-07-22 01:40:00,75.0,61.1,29.91,SSW,202,0.0,0.0,62,0.00,,,0.00,VWS V14.01,2013-07-22 05:40:00,
2013-07-22 01:43:00,75.0,61.1,29.91,SSW,202,0.0,1.1,62,0.00,,,0.00,VWS V14.01,2013-07-22 05:43:00,
2013-07-22 01:44:00,75.0,61.1,29.91,SSW,202,0.0,1.1,62,0.00,,,0.00,VWS V14.01,2013-07-22 05:44:00,
2013-07-22 01:45:00,75.0,61.1,29.91,SSW,202,0.0,0.0,62,0.00,,,0.00,VWS V14.01,2013-07-22 05:45:00,
2013-07-22 01:48:00,75.2,61.3,29.91,SSW,202,0.0,0.0,62,0.00,,,0.00,VWS V14.01,2013-07-22 05:48:00,
2013-07-22 01:49:00,75.2,61.3,29.91,SSW,202,0.0,0.0,62,0.00,,,0.00,VWS V14.01,2013-07-22 05:49:00,
2013-07-22 01:51:00,75.2,61.3,29.91,SSW,202,0.0,0.0,62,0.00,,,0.00,VWS V14.01,2013-07-22 05:51:00,
2013-07-22 01:53:00,75.2,61.3,29.91,SSW,202,0.0,0.0,62,0.00,,,0.00,VWS V14.01,2013-07-22 05:53:00,
2013-07-22 01:54:00,75.2,61.3,29.91,SSW,202,0.0,0.0,62,0.00,,,0.00,VWS V14.01,2013-07-22 05:54:00,
2013-07-22 01:55:00,75.2,61.3,29.91,SSW,202,0.0,0.0,62,0.00,,,0.00,VWS V14.01,2013-07-22 05:55:00,
2013-07-22 01:56:00,75.2,61.3,29.91,SSW,202,0.0,0.0,62,0.00,,,0.00,VWS V14.01,2013-07-22 05:56:00,
2013-07-22 01:58:00,75.0,61.6,29.91,SSW,202,0.0,0.0,63,0.00,,,0.00,VWS V14.01,2013-07-22 05:58:00,
2013-07-22 01:59:00,75.0,61.6,29.91,SSW,202,0.0,0.0,63,0.00,,,0.00,VWS V14.01,2013-07-22 05:59:00,
2013-07-22 02:00:00,75.0,61.6,29.91,NNE,22,0.0,1.1,63,0.00,,,0.00,VWS V14.01,2013-07-22 06:00:00,
2013-07-22 02:01:00,75.0,61.6,29.91,NE,45,0.0,1.1,63,0.00,,,0.00,VWS V14.01,2013-07-22 06:01:00,
2013-07-22 02:03:00,75.2,61.3,29.91,NE,45,0.0,0.0,62,0.00,,,0.00,VWS V14.01,2013-07-22 06:03:00,
2013-07-22 02:04:00,75.2,61.3,29.91,NE,45,0.0,0.0,62,0.00,,,0.00,VWS V14.01,2013-07-22 06:04:00,
2013-07-22 02:05:00,75.2,61.3,29.91,NE,45,0.0,0.0,62,0.00,,,0.00,VWS V14.01,2013-07-22 06:05:00,
2013-07-22 02:06:00,75.2,61.3,29.91,NE,45,0.0,0.0,62,0.00,,,0.00,VWS V14.01,2013-07-22 06:06:00,
2013-07-22 02:09:00,75.2,61.8,29.91,South,180,0.0,0.0,63,0.00,,,0.00,VWS V14.01,2013-07-22 06:09:00,
2013-07-22 02:10:00,75.2,61.8,29.91,South,180,0.0,0.0,63,0.00,,,0.00,VWS V14.01,2013-07-22 06:10:00,
2013-07-22 02:11:00,75.2,61.8,29.91,ENE,68,0.0,0.0,63,0.00,,,0.00,VWS V14.01,2013-07-22 06:11:00,
2013-07-22 02:14:00,75.4,61.9,29.91,NE,45,0.0,0.0,63,0.00,,,0.00,VWS V14.01,2013-07-22 06:14:00,
2013-07-22 02:15:00,75.4,61.9,29.91,NE,45,0.0,0.0,63,0.00,,,0.00,VWS V14.01,2013-07-22 06:15:00,
2013-07-22 02:16:00,75.4,61.9,29.91,NE,45,0.0,0.0,63,0.00,,,0.00,VWS V14.01,2013-07-22 06:16:00,
2013-07-22 02:19:00,75.4,61.9,29.91,NE,45,0.0,0.0,63,0.00,,,0.00,VWS V14.01,2013-07-22 06:19:00,
2013-07-22 02:20:00,75.4,61.9,29.91,NE,45,0.0,0.0,63,0.00,,,0.00,VWS V14.01,2013-07-22 06:20:00,
2013-07-22 02:21:00,75.4,61.9,29.91,NE,45,0.0,0.0,63,0.00,,,0.00,VWS V14.01,2013-07-22 06:21:00,
2013-07-22 02:24:00,75.4,61.9,29.91,NE,45,0.0,0.0,63,0.00,,,0.00,VWS V14.01,2013-07-22 06:24:00,
2013-07-22 02:25:00,75.4,61.9,29.91,NE,45,0.0,0.0,63,0.00,,,0.00,VWS V14.01,2013-07-22 06:25:00,
2013-07-22 02:26:00,75.4,61.9,29.91,NE,45,0.0,0.0,63,0.00,,,0.00,VWS V14.01,2013-07-22 06:26:00,
2013-07-22 02:29:00,75.4,61.9,29.91,NNE,22,0.9,0.9,63,0.00,,,0.00,VWS V14.01,2013-07-22 06:29:00,
2013-07-22 02:30:00,75.4,61.5,29.91,NNE,22,0.9,0.9,62,0.00,,,0.00,VWS V14.01,2013-07-22 06:30:00,
2013-07-22 02:31:00,75.4,61.5,29.91,NE,45,0.0,0.9,62,0.00,,,0.00,VWS V14.01,2013-07-22 06:31:00,
2013-07-22 02:34:00,75.4,61.9,29.91,East,90,0.0,0.0,63,0.00,,,0.00,VWS V14.01,2013-07-22 06:34:00,
2013-07-22 02:35:00,75.4,61.9,29.91,East,90,0.0,0.0,63,0.00,,,0.00,VWS V14.01,2013-07-22 06:35:00,
2013-07-22 02:36:00,75.4,61.9,29.91,NE,45,0.0,0.0,63,0.00,,,0.00,VWS V14.01,2013-07-22 06:36:00,
2013-07-22 02:37:00,75.4,61.9,29.91,NE,45,1.1,1.1,63,0.00,,,0.00,VWS V14.01,2013-07-22 06:37:00,
2013-07-22 02:40:00,75.4,61.9,29.91,NE,45,0.0,0.0,63,0.00,,,0.00,VWS V14.01,2013-07-22 06:40:00,
2013-07-22 02:41:00,75.4,61.9,29.91,NE,45,0.0,0.0,63,0.00,,,0.00,VWS V14.01,2013-07-22 06:41:00,
2013-07-22 02:42:00,75.4,61.9,29.91,NE,45,0.0,0.0,63,0.00,,,0.00,VWS V14.01,2013-07-22 06:42:00,
2013-07-22 02:45:00,75.4,61.9,29.91,NE,45,0.0,0.0,63,0.00,,,0.00,VWS V14.01,2013-07-22 06:45:00,
2013-07-22 02:46:00,75.4,61.9,29.91,NE,45,1.6,1.6,63,0.00,,,0.00,VWS V14.01,2013-07-22 06:46:00,
2013-07-22 02:47:00,75.4,61.9,29.91,NNE,22,2.5,2.5,63,0.00,,,0.00,VWS V14.01,2013-07-22 06:47:00,
2013-07-22 02:50:00,75.2,61.3,29.91,NNE,22,2.0,2.0,62,0.00,,,0.00,VWS V14.01,2013-07-22 06:50:00,
2013-07-22 02:51:00,75.2,61.3,29.91,NNE,22,0.0,0.0,62,0.00,,,0.00,VWS V14.01,2013-07-22 06:51:00,
2013-07-22 02:52:00,75.2,61.8,29.91,NNE,22,0.0,0.0,63,0.00,,,0.00,VWS V14.01,2013-07-22 06:52:00,
2013-07-22 02:55:00,75.2,61.8,29.91,NE,45,0.0,0.0,63,0.00,,,0.00,VWS V14.01,2013-07-22 06:55:00,
2013-07-22 02:56:00,75.2,61.8,29.91,NE,45,0.0,0.0,63,0.00,,,0.00,VWS V14.01,2013-07-22 06:56:00,
2013-07-22 02:57:00,75.2,61.8,29.91,NE,45,0.0,0.0,63,0.00,,,0.00,VWS V14.01,2013-07-22 06:57:00,
2013-07-22 03:00:00,75.2,61.8,29.91,NNE,22,0.0,0.0,63,0.00,,,0.00,VWS V14.01,2013-07-22 07:00:00,
2013-07-22 03:01:00,75.2,61.8,29.91,NNE,22,0.0,0.0,63,0.00,,,0.00,VWS V14.01,2013-07-22 07:01:00,
2013-07-22 03:02:00,75.4,62.4,29.91,NNE,22,0.0,0.0,64,0.00,,,0.00,VWS V14.01,2013-07-22 07:02:00,
2013-07-22 03:05:00,75.2,62.2,29.91,NE,45,0.0,0.0,64,0.00,,,0.00,VWS V14.01,2013-07-22 07:05:00,
2013-07-22 03:06:00,75.2,62.2,29.91,NE,45,0.0,0.0,64,0.00,,,0.00,VWS V14.01,2013-07-22 07:06:00,
2013-07-22 03:08:00,75.2,61.8,29.91,NE,45,0.0,0.0,63,0.00,,,0.00,VWS V14.01,2013-07-22 07:08:00,
2013-07-22 03:10:00,75.2,61.8,29.91,NE,45,0.0,0.0,63,0.00,,,0.00,VWS V14.01,2013-07-22 07:10:00,
2013-07-22 03:11:00,75.2,61.8,29.91,NE,45,0.0,0.0,63,0.00,,,0.00,VWS V14.01,2013-07-22 07:11:00,
2013-07-22 03:13:00,75.2,62.2,29.91,North,0,2.5,2.5,64,0.00,,,0.00,VWS V14.01,2013-07-22 07:13:00,
2013-07-22 03:16:00,75.2,61.8,29.91,NE,45,0.0,0.0,63,0.00,,,0.00,VWS V14.01,2013-07-22 07:16:00,
2013-07-22 03:17:00,75.2,61.8,29.91,NNE,22,2.0,2.0,63,0.00,,,0.00,VWS V14.01,2013-07-22 07:17:00,
2013-07-22 03:18:00,75.0,62.0,29.91,NE,45,1.6,1.6,64,0.00,,,0.00,VWS V14.01,2013-07-22 07:18:00,
2013-07-22 03:21:00,75.0,62.0,29.91,NE,45,0.0,0.0,64,0.00,,,0.00,VWS V14.01,2013-07-22 07:21:00,
2013-07-22 03:22:00,75.0,62.0,29.91,NNE,22,0.0,0.0,64,0.00,,,0.00,VWS V14.01,2013-07-22 07:22:00,
2013-07-22 03:23:00,75.2,61.8,29.91,NE,45,0.0,0.0,63,0.00,,,0.00,VWS V14.01,2013-07-22 07:23:00,
2013-07-22 03:26:00,75.2,62.2,29.91,NE,45,0.0,0.0,64,0.00,,,0.00,VWS V14.01,2013-07-22 07:26:00,
2013-07-22 03:27:00,75.2,62.2,29.91,SE,135,0.0,0.0,64,0.00,,,0.00,VWS V14.01,2013-07-22 07:27:00,
2013-07-22 03:28:00,75.2,62.2,29.91,SE,135,0.0,0.0,64,0.00,,,0.00,VWS V14.01,2013-07-22 07:28:00,
2013-07-22 03:31:00,75.2,62.2,29.91,NNE,22,0.0,0.0,64,0.00,,,0.00,VWS V14.01,2013-07-22 07:31:00,
2013-07-22 03:32:00,75.2,62.2,29.91,NNE,22,0.0,0.0,64,0.00,,,0.00,VWS V14.01,2013-07-22 07:32:00,
2013-07-22 03:33:00,75.2,62.2,29.91,NE,45,0.0,0.0,64,0.00,,,0.00,VWS V14.01,2013-07-22 07:33:00,
2013-07-22 03:36:00,75.2,62.2,29.91,NE,45,0.0,1.1,64,0.00,,,0.00,VWS V14.01,2013-07-22 07:36:00,
2013-07-22 03:37:00,75.2,62.2,29.91,NE,45,0.0,0.0,64,0.00,,,0.00,VWS V14.01,2013-07-22 07:37:00,
2013-07-22 03:38:00,75.2,62.2,29.91,NE,45,2.0,2.0,64,0.00,,,0.00,VWS V14.01,2013-07-22 07:38:00,
2013-07-22 03:41:00,75.2,62.2,29.91,NE,45,0.0,0.0,64,0.00,,,0.00,VWS V14.01,2013-07-22 07:41:00,
2013-07-22 03:42:00,75.2,62.2,29.91,NE,45,0.0,0.0,64,0.00,,,0.00,VWS V14.01,2013-07-22 07:42:00,
2013-07-22 03:44:00,75.2,62.2,29.91,NE,45,0.0,0.0,64,0.00,,,0.00,VWS V14.01,2013-07-22 07:44:00,
2013-07-22 03:46:00,75.4,62.4,29.91,NE,45,0.0,0.0,64,0.00,,,0.00,VWS V14.01,2013-07-22 07:46:00,
2013-07-22 03:47:00,75.4,62.4,29.91,NE,45,0.0,0.0,64,0.00,,,0.00,VWS V14.01,2013-07-22 07:47:00,
2013-07-22 03:49:00,75.4,62.4,29.91,NE,45,0.0,0.0,64,0.00,,,0.00,VWS V14.01,2013-07-22 07:49:00,
2013-07-22 03:51:00,75.4,62.4,29.91,NE,45,0.0,0.0,64,0.00,,,0.00,VWS V14.01,2013-07-22 07:51:00,
2013-07-22 03:52:00,75.4,62.4,29.91,NE,45,0.0,0.0,64,0.00,,,0.00,VWS V14.01,2013-07-22 07:52:00,
2013-07-22 03:54:00,75.2,62.2,29.91,NE,45,0.0,0.0,64,0.00,,,0.00,VWS V14.01,2013-07-22 07:54:00,
2013-07-22 03:57:00,75.2,62.2,29.91,NE,45,0.0,0.0,64,0.00,,,0.00,VWS V14.01,2013-07-22 07:57:00,
2013-07-22 03:58:00,75.2,62.2,29.91,NNE,22,0.0,0.0,64,0.00,,,0.00,VWS V14.01,2013-07-22 07:58:00,
2013-07-22 04:00:00,75.2,62.2,29.91,NE,45,0.0,0.0,64,0.00,,,0.00,VWS V14.01,2013-07-22 08:00:00,
2013-07-22 04:02:00,75.4,62.4,29.91,NE,45,0.0,0.0,64,0.00,,,0.00,VWS V14.01,2013-07-22 08:02:00,
2013-07-22 04:03:00,75.4,62.4,29.91,NE,45,0.0,0.0,64,0.00,,,0.00,VWS V14.01,2013-07-22 08:03:00,
2013-07-22 04:05:00,75.4,62.4,29.91,NE,45,0.0,1.6,64,0.00,,,0.00,VWS V14.01,2013-07-22 08:05:00,
2013-07-22 04:07:00,75.4,62.4,29.91,NNE,22,1.6,1.6,64,0.00,,,0.00,VWS V14.01,2013-07-22 08:07:00,
2013-07-22 04:08:00,75.4,62.4,29.91,NNE,22,0.0,1.6,64,0.00,,,0.00,VWS V14.01,2013-07-22 08:08:00,
2013-07-22 04:10:00,75.2,62.2,29.91,NE,45,0.0,1.1,64,0.00,,,0.00,VWS V14.01,2013-07-22 08:10:00,
2013-07-22 04:12:00,75.2,62.2,29.91,NNE,22,0.0,0.0,64,0.00,,,0.00,VWS V14.01,2013-07-22 08:12:00,
2013-07-22 04:13:00,75.2,62.2,29.91,NNE,22,0.0,0.0,64,0.00,,,0.00,VWS V14.01,2013-07-22 08:13:00,
2013-07-22 04:15:00,75.2,62.2,29.91,NNE,22,0.0,0.0,64,0.00,,,0.00,VWS V14.01,2013-07-22 08:15:00,
2013-07-22 04:18:00,75.2,62.2,29.91,NE,45,0.0,0.0,64,0.00,,,0.00,VWS V14.01,2013-07-22 08:18:00,
2013-07-22 04:20:00,75.2,62.2,29.91,NE,45,0.0,0.0,64,0.00,,,0.00,VWS V14.01,2013-07-22 08:20:00,
2013-07-22 04:23:00,75.2,62.2,29.91,NE,45,1.6,1.6,64,0.00,,,0.00,VWS V14.01,2013-07-22 08:23:00,
2013-07-22 04:24:00,75.2,62.2,29.91,NE,45,0.0,1.6,64,0.00,,,0.00,VWS V14.01,2013-07-22 08:24:00,
2013-07-22 04:25:00,75.2,62.2,29.91,NE,45,0.0,0.0,64,0.00,,,0.00,VWS V14.01,2013-07-22 08:25:00,
2013-07-22 04:28:00,75.2,62.2,29.91,NE,45,0.0,1.1,64,0.00,,,0.00,VWS V14.01,2013-07-22 08:28:00,
2013-07-22 04:29:00,75.2,62.2,29.91,NE,45,0.0,0.0,64,0.00,,,0.00,VWS V14.01,2013-07-22 08:29:00,
2013-07-22 04:30:00,75.0,62.0,29.91,NE,45,0.0,0.0,64,0.00,,,0.00,VWS V14.01,2013-07-22 08:30:00,
2013-07-22 04:33:00,75.0,62.0,29.91,NE,45,0.0,1.1,64,0.00,,,0.00,VWS V14.01,2013-07-22 08:33:00,
2013-07-22 04:34:00,75.0,62.0,29.91,NE,45,0.0,1.1,64,0.00,,,0.00,VWS V14.01,2013-07-22 08:34:00,
2013-07-22 04:35:00,75.2,62.2,29.91,NE,45,0.0,0.0,64,0.00,,,0.00,VWS V14.01,2013-07-22 08:35:00,
2013-07-22 04:38:00,75.2,62.2,29.91,NNE,22,1.6,1.6,64,0.00,,,0.00,VWS V14.01,2013-07-22 08:38:00,
2013-07-22 04:39:00,75.0,62.5,29.91,NNE,22,0.0,0.0,65,0.00,,,0.00,VWS V14.01,2013-07-22 08:39:00,
2013-07-22 04:40:00,75.0,62.5,29.91,NE,45,0.0,0.0,65,0.00,,,0.00,VWS V14.01,2013-07-22 08:40:00,
2013-07-22 04:43:00,75.2,62.2,29.91,NE,45,0.0,0.0,64,0.00,,,0.00,VWS V14.01,2013-07-22 08:43:00,
2013-07-22 04:44:00,75.2,62.2,29.91,NE,45,0.0,0.0,64,0.00,,,0.00,VWS V14.01,2013-07-22 08:44:00,
2013-07-22 04:45:00,75.2,62.2,29.91,ENE,68,0.0,0.0,64,0.00,,,0.00,VWS V14.01,2013-07-22 08:45:00,
2013-07-22 04:49:00,75.0,62.5,29.91,ENE,68,0.0,0.0,65,0.00,,,0.00,VWS V14.01,2013-07-22 08:49:00,
2013-07-22 04:50:00,75.0,62.5,29.91,NE,45,0.0,0.0,65,0.00,,,0.00,VWS V14.01,2013-07-22 08:50:00,
2013-07-22 04:51:00,75.0,62.5,29.91,NE,45,0.0,0.0,65,0.00,,,0.00,VWS V14.01,2013-07-22 08:51:00,
2013-07-22 04:54:00,75.2,62.6,29.91,NE,45,0.0,0.0,65,0.00,,,0.00,VWS V14.01,2013-07-22 08:54:00,
2013-07-22 04:55:00,75.2,62.6,29.91,NE,45,0.0,0.0,65,0.00,,,0.00,VWS V14.01,2013-07-22 08:55:00,
2013-07-22 04:56:00,75.2,62.6,29.91,NE,45,0.0,0.0,65,0.00,,,0.00,VWS V14.01,2013-07-22 08:56:00,
2013-07-22 04:59:00,75.2,62.6,29.91,NE,45,0.0,0.0,65,0.00,,,0.00,VWS V14.01,2013-07-22 08:59:00,
2013-07-22 05:00:00,75.2,62.6,29.91,NE,45,0.0,0.0,65,0.00,,,0.00,VWS V14.01,2013-07-22 09:00:00,
2013-07-22 05:01:00,75.2,62.6,29.91,NNE,22,1.3,1.3,65,0.00,,,0.00,VWS V14.01,2013-07-22 09:01:00,
2013-07-22 05:04:00,75.2,62.6,29.91,NE,45,0.0,0.0,65,0.00,,,0.00,VWS V14.01,2013-07-22 09:04:00,
2013-07-22 05:05:00,75.2,62.6,29.91,NE,45,0.0,0.0,65,0.00,,,0.00,VWS V14.01,2013-07-22 09:05:00,
2013-07-22 05:07:00,75.2,62.6,29.91,NE,45,0.0,0.0,65,0.00,,,0.00,VWS V14.01,2013-07-22 09:07:00,
2013-07-22 05:09:00,75.2,62.6,29.91,NE,45,0.0,0.0,65,0.00,,,0.00,VWS V14.01,2013-07-22 09:09:00,
2013-07-22 05:10:00,75.2,62.6,29.91,NE,45,0.0,0.0,65,0.00,,,0.00,VWS V14.01,2013-07-22 09:10:00,
2013-07-22 05:12:00,75.2,62.6,29.91,NE,45,0.0,0.0,65,0.00,,,0.00,VWS V14.01,2013-07-22 09:12:00,
2013-07-22 05:14:00,75.2,62.6,29.91,NE,45,0.0,0.0,65,0.00,,,0.00,VWS V14.01,2013-07-22 09:14:00,
2013-07-22 05:15:00,75.2,62.6,29.91,NNE,22,1.3,1.3,65,0.00,,,0.00,VWS V14.01,2013-07-22 09:15:00,
2013-07-22 05:17:00,75.2,62.2,29.91,NE,45,0.0,1.3,64,0.00,,,0.00,VWS V14.01,2013-07-22 09:17:00,
2013-07-22 05:19:00,75.0,62.5,29.91,NNE,22,0.0,0.0,65,0.00,,,0.00,VWS V14.01,2013-07-22 09:19:00,
2013-07-22 05:20:00,75.0,62.5,29.91,NNE,22,0.0,0.0,65,0.00,,,0.00,VWS V14.01,2013-07-22 09:20:00,
2013-07-22 05:22:00,75.0,62.5,29.91,NE,45,0.0,0.0,65,0.00,,,0.00,VWS V14.01,2013-07-22 09:22:00,
2013-07-22 05:25:00,75.0,62.5,29.91,NE,45,0.0,0.0,65,0.00,,,0.00,VWS V14.01,2013-07-22 09:25:00,
2013-07-22 05:27:00,75.2,62.6,29.91,NNE,22,0.0,0.0,65,0.00,,,0.00,VWS V14.01,2013-07-22 09:27:00,
2013-07-22 05:30:00,75.2,62.6,29.91,NE,45,0.0,0.0,65,0.00,,,0.00,VWS V14.01,2013-07-22 09:30:00,
2013-07-22 05:31:00,75.0,62.5,29.91,NNE,22,0.0,0.0,65,0.00,,,0.00,VWS V14.01,2013-07-22 09:31:00,
2013-07-22 05:32:00,75.0,62.5,29.91,NNE,22,0.0,0.0,65,0.00,,,0.00,VWS V14.01,2013-07-22 09:32:00,
2013-07-22 05:35:00,75.0,62.5,29.91,NE,45,0.0,0.0,65,0.00,,,0.00,VWS V14.01,2013-07-22 09:35:00,
2013-07-22 05:36:00,75.0,62.5,29.91,NNE,22,0.0,0.0,65,0.00,,,0.00,VWS V14.01,2013-07-22 09:36:00,
2013-07-22 05:37:00,75.0,62.5,29.91,NE,45,2.7,2.7,65,0.00,,,0.00,VWS V14.01,2013-07-22 09:37:00,
2013-07-22 05:40:00,75.0,62.5,29.91,NE,45,0.0,0.0,65,0.00,,,0.00,VWS V14.01,2013-07-22 09:40:00,
2013-07-22 05:41:00,75.0,62.5,29.91,NE,45,0.0,0.0,65,0.00,,,0.00,VWS V14.01,2013-07-22 09:41:00,
2013-07-22 05:42:00,75.0,62.5,29.91,NE,45,0.0,0.0,65,0.00,,,0.00,VWS V14.01,2013-07-22 09:42:00,
2013-07-22 05:45:00,75.0,62.9,29.91,NE,45,0.0,0.0,66,0.00,,,0.00,VWS V14.01,2013-07-22 09:45:00,
2013-07-22 05:46:00,75.0,62.9,29.91,NE,45,0.0,0.0,66,0.00,,,0.00,VWS V14.01,2013-07-22 09:46:00,
2013-07-22 05:47:00,75.0,62.9,29.91,NE,45,0.0,0.0,66,0.00,,,0.00,VWS V14.01,2013-07-22 09:47:00,
2013-07-22 05:50:00,75.0,62.9,29.91,NE,45,0.0,0.0,66,0.00,,,0.00,VWS V14.01,2013-07-22 09:50:00,
2013-07-22 05:51:00,75.0,62.9,29.91,NE,45,0.0,0.0,66,0.00,,,0.00,VWS V14.01,2013-07-22 09:51:00,
2013-07-22 05:52:00,75.2,62.6,29.91,NE,45,0.0,0.0,65,0.00,,,0.00,VWS V14.01,2013-07-22 09:52:00,
2013-07-22 05:53:00,75.2,62.6,29.91,NNE,22,0.0,0.0,65,0.00,,,0.00,VWS V14.01,2013-07-22 09:53:00,
2013-07-22 05:56:00,75.0,62.9,29.91,NE,45,0.0,0.0,66,0.00,,,0.00,VWS V14.01,2013-07-22 09:56:00,
2013-07-22 05:57:00,75.0,62.9,29.91,NE,45,0.0,0.0,66,0.00,,,0.00,VWS V14.01,2013-07-22 09:57:00,
2013-07-22 05:58:00,75.0,62.9,29.91,NE,45,0.0,0.9,66,0.00,,,0.00,VWS V14.01,2013-07-22 09:58:00,
2013-07-22 06:01:00,75.0,62.9,29.91,NW,315,0.0,1.1,66,0.00,,,0.00,VWS V14.01,2013-07-22 10:01:00,
2013-07-22 06:02:00,75.0,62.9,29.91,NE,45,0.0,0.0,66,0.00,,,0.00,VWS V14.01,2013-07-22 10:02:00,
2013-07-22 06:03:00,75.0,62.9,29.91,SSW,202,0.0,0.0,66,0.00,,,0.00,VWS V14.01,2013-07-22 10:03:00,
2013-07-22 06:06:00,75.0,62.5,29.91,NE,45,0.0,0.0,65,0.00,,,0.00,VWS V14.01,2013-07-22 10:06:00,
2013-07-22 06:07:00,75.0,62.5,29.91,NNE,22,2.5,2.5,65,0.00,,,0.00,VWS V14.01,2013-07-22 10:07:00,
2013-07-22 06:08:00,75.0,62.5,29.91,NNE,22,0.0,2.5,65,0.00,,,0.00,VWS V14.01,2013-07-22 10:08:00,
2013-07-22 06:11:00,75.0,62.5,29.91,NE,45,0.0,0.0,65,0.00,,,0.00,VWS V14.01,2013-07-22 10:11:00,
2013-07-22 06:12:00,75.0,62.5,29.91,NE,45,0.0,0.0,65,0.00,,,0.00,VWS V14.01,2013-07-22 10:12:00,
2013-07-22 06:13:00,75.0,62.9,29.91,NE,45,0.0,0.0,66,0.00,,,0.00,VWS V14.01,2013-07-22 10:13:00,
2013-07-22 06:16:00,75.0,62.9,29.91,NE,45,2.2,2.2,66,0.00,,,0.00,VWS V14.01,2013-07-22 10:16:00,
2013-07-22 06:17:00,74.8,62.3,29.91,NNE,22,3.1,3.1,65,0.00,,,0.00,VWS V14.01,2013-07-22 10:17:00,
2013-07-22 06:18:00,74.8,62.3,29.91,ENE,68,0.0,0.0,65,0.00,,,0.00,VWS V14.01,2013-07-22 10:18:00,
2013-07-22 06:19:00,74.8,62.3,29.91,ENE,68,0.0,0.0,65,0.00,,,0.00,VWS V14.01,2013-07-22 10:19:00,
2013-07-22 06:21:00,74.8,62.3,29.91,NE,45,2.0,2.0,65,0.00,,,0.00,VWS V14.01,2013-07-22 10:21:00,
2013-07-22 06:22:00,74.8,62.7,29.91,ENE,68,0.0,0.0,66,0.00,,,0.00,VWS V14.01,2013-07-22 10:22:00,
2013-07-22 06:23:00,75.0,62.9,29.91,NE,45,0.0,0.0,66,0.00,,,0.00,VWS V14.01,2013-07-22 10:23:00,
2013-07-22 06:24:00,75.0,62.9,29.91,East,90,0.9,0.9,66,0.00,,,0.00,VWS V14.01,2013-07-22 10:24:00,
2013-07-22 06:26:00,74.8,62.7,29.91,North,0,2.0,2.2,66,0.00,,,0.00,VWS V14.01,2013-07-22 10:26:00,
2013-07-22 06:27:00,74.8,62.3,29.91,NE,45,0.0,2.0,65,0.00,,,0.00,VWS V14.01,2013-07-22 10:27:00,
2013-07-22 06:29:00,74.8,62.7,29.91,NNE,22,2.0,2.0,66,0.00,,,0.00,VWS V14.01,2013-07-22 10:29:00,
2013-07-22 06:31:00,74.8,62.3,29.91,NNE,22,1.6,1.6,65,0.00,,,0.00,VWS V14.01,2013-07-22 10:31:00,
2013-07-22 06:32:00,74.8,62.3,29.91,NNE,22,2.2,2.2,65,0.00,,,0.00,VWS V14.01,2013-07-22 10:32:00,
2013-07-22 06:34:00,74.8,62.3,29.91,East,90,2.0,2.2,65,0.00,,,0.00,VWS V14.01,2013-07-22 10:34:00,
2013-07-22 06:36:00,75.0,62.9,29.91,NE,45,1.1,1.1,66,0.00,,,0.00,VWS V14.01,2013-07-22 10:36:00,
2013-07-22 06:37:00,74.8,62.7,29.91,NNE,22,1.1,2.0,66,0.00,,,0.00,VWS V14.01,2013-07-22 10:37:00,
2013-07-22 06:39:00,74.8,62.7,29.91,NNE,22,1.1,1.1,66,0.00,,,0.00,VWS V14.01,2013-07-22 10:39:00,
2013-07-22 06:41:00,75.0,62.9,29.91,North,0,0.0,0.0,66,0.00,,,0.00,VWS V14.01,2013-07-22 10:41:00,
2013-07-22 06:42:00,75.0,62.9,29.91,NE,45,0.0,0.0,66,0.00,,,0.00,VWS V14.01,2013-07-22 10:42:00,
2013-07-22 06:43:00,75.0,62.9,29.91,NE,45,0.0,0.0,66,0.00,,,0.00,VWS V14.01,2013-07-22 10:43:00,
2013-07-22 06:44:00,75.0,62.9,29.91,NE,45,0.0,0.0,66,0.00,,,0.00,VWS V14.01,2013-07-22 10:44:00,
2013-07-22 06:46:00,75.0,62.9,29.91,North,0,2.2,2.2,66,0.00,,,0.00,VWS V14.01,2013-07-22 10:46:00,
2013-07-22 06:47:00,75.0,62.9,29.91,North,0,0.0,0.0,66,0.00,,,0.00,VWS V14.01,2013-07-22 10:47:00,
2013-07-22 06:48:00,75.0,62.9,29.91,NE,45,0.0,0.0,66,0.00,,,0.00,VWS V14.01,2013-07-22 10:48:00,
2013-07-22 06:49:00,75.0,62.9,29.91,NNE,22,0.0,0.0,66,0.00,,,0.00,VWS V14.01,2013-07-22 10:49:00,
2013-07-22 06:51:00,75.2,63.1,29.91,North,0,0.0,0.0,66,0.00,,,0.00,VWS V14.01,2013-07-22 10:51:00,
2013-07-22 06:53:00,75.2,63.1,29.91,NE,45,1.6,1.6,66,0.00,,,0.00,VWS V14.01,2013-07-22 10:53:00,
2013-07-22 06:54:00,75.2,63.1,29.91,North,0,1.6,1.6,66,0.00,,,0.00,VWS V14.01,2013-07-22 10:54:00,
2013-07-22 06:57:00,75.2,62.6,29.91,NNE,22,1.3,1.3,65,0.00,,,0.00,VWS V14.01,2013-07-22 10:57:00,
2013-07-22 06:58:00,75.2,63.1,29.91,NE,45,1.6,1.6,66,0.00,,,0.00,VWS V14.01,2013-07-22 10:58:00,
2013-07-22 06:59:00,75.2,63.1,29.91,NE,45,0.9,2.5,66,0.00,,,0.00,VWS V14.01,2013-07-22 10:59:00,
2013-07-22 07:00:00,75.2,63.1,29.91,NE,45,0.9,2.5,66,0.00,,,0.00,VWS V14.01,2013-07-22 11:00:00,
2013-07-22 07:02:00,75.2,63.1,29.91,North,0,0.0,2.5,66,0.00,,,0.00,VWS V14.01,2013-07-22 11:02:00,
2013-07-22 07:03:00,75.4,63.2,29.91,NNE,22,0.9,0.9,66,0.00,,,0.00,VWS V14.01,2013-07-22 11:03:00,
2013-07-22 07:05:00,75.4,63.2,29.91,NE,45,0.0,0.0,66,0.00,,,0.00,VWS V14.01,2013-07-22 11:05:00,
2013-07-22 07:07:00,75.4,63.2,29.91,ENE,68,2.0,2.0,66,0.00,,,0.00,VWS V14.01,2013-07-22 11:07:00,
2013-07-22 07:08:00,75.4,63.2,29.91,ENE,68,0.0,2.0,66,0.00,,,0.00,VWS V14.01,2013-07-22 11:08:00,
2013-07-22 07:09:00,75.4,63.2,29.91,ENE,68,0.0,0.0,66,0.00,,,0.00,VWS V14.01,2013-07-22 11:09:00,
2013-07-22 07:10:00,75.4,63.2,29.91,NE,45,0.0,0.0,66,0.00,,,0.00,VWS V14.01,2013-07-22 11:10:00,
2013-07-22 07:12:00,75.6,63.4,29.91,East,90,0.0,1.1,66,0.00,,,0.00,VWS V14.01,2013-07-22 11:12:00,
2013-07-22 07:13:00,75.6,63.4,29.91,NE,45,1.1,1.1,66,0.00,,,0.00,VWS V14.01,2013-07-22 11:13:00,
2013-07-22 07:14:00,75.6,63.4,29.91,NE,45,1.1,1.1,66,0.00,,,0.00,VWS V14.01,2013-07-22 11:14:00,
2013-07-22 07:15:00,75.6,63.0,29.91,NNE,22,2.5,2.5,65,0.00,,,0.00,VWS V14.01,2013-07-22 11:15:00,
2013-07-22 07:17:00,75.6,63.0,29.91,North,0,0.0,0.0,65,0.00,,,0.00,VWS V14.01,2013-07-22 11:17:00,
2013-07-22 07:18:00,75.6,63.0,29.91,North,0,2.0,2.0,65,0.00,,,0.00,VWS V14.01,2013-07-22 11:18:00,
2013-07-22 07:19:00,75.6,63.0,29.91,North,0,2.0,2.0,65,0.00,,,0.00,VWS V14.01,2013-07-22 11:19:00,
2013-07-22 07:20:00,75.6,63.0,29.91,NE,45,1.1,1.6,65,0.00,,,0.00,VWS V14.01,2013-07-22 11:20:00,
2013-07-22 07:22:00,75.7,63.2,29.91,NNE,22,2.0,2.0,65,0.00,,,0.00,VWS V14.01,2013-07-22 11:22:00,
2013-07-22 07:24:00,75.6,63.0,29.91,NE,45,3.1,3.1,65,0.00,,,0.00,VWS V14.01,2013-07-22 11:24:00,
2013-07-22 07:25:00,75.6,62.5,29.91,NNE,22,1.6,3.1,64,0.00,,,0.00,VWS V14.01,2013-07-22 11:25:00,
2013-07-22 07:26:00,75.6,62.5,29.91,NE,45,1.1,3.1,64,0.00,,,0.00,VWS V14.01,2013-07-22 11:26:00,
2013-07-22 07:27:00,75.7,62.7,29.91,NE,45,1.6,1.6,64,0.00,,,0.00,VWS V14.01,2013-07-22 11:27:00,
2013-07-22 07:29:00,75.7,63.2,29.91,NE,45,1.6,1.6,65,0.00,,,0.00,VWS V14.01,2013-07-22 11:29:00,
2013-07-22 07:30:00,75.7,62.7,29.91,North,0,2.5,2.5,64,0.00,,,0.00,VWS V14.01,2013-07-22 11:30:00,
2013-07-22 07:31:00,75.7,62.7,29.91,NNE,22,4.3,4.3,64,0.00,,,0.00,VWS V14.01,2013-07-22 11:31:00,
2013-07-22 07:33:00,75.7,62.7,29.91,NNE,22,0.0,2.5,64,0.00,,,0.00,VWS V14.01,2013-07-22 11:33:00,
2013-07-22 07:34:00,75.9,62.9,29.91,NNE,22,0.0,0.0,64,0.00,,,0.00,VWS V14.01,2013-07-22 11:34:00,
2013-07-22 07:35:00,75.9,62.9,29.91,NE,45,0.0,0.0,64,0.00,,,0.00,VWS V14.01,2013-07-22 11:35:00,
2013-07-22 07:36:00,75.9,63.3,29.91,NE,45,0.0,0.0,65,0.00,,,0.00,VWS V14.01,2013-07-22 11:36:00,
2013-07-22 07:38:00,75.9,62.9,29.91,North,0,0.9,2.9,64,0.00,,,0.00,VWS V14.01,2013-07-22 11:38:00,
2013-07-22 07:39:00,75.9,62.9,29.91,NNE,22,2.7,2.7,64,0.00,,,0.00,VWS V14.01,2013-07-22 11:39:00,
2013-07-22 07:40:00,75.9,62.9,29.91,NNE,22,2.2,2.2,64,0.00,,,0.00,VWS V14.01,2013-07-22 11:40:00,
2013-07-22 07:41:00,75.9,62.9,29.91,NNE,22,1.3,2.2,64,0.00,,,0.00,VWS V14.01,2013-07-22 11:41:00,
2013-07-22 07:43:00,75.9,62.9,29.91,NE,45,2.7,2.7,64,0.00,,,0.00,VWS V14.01,2013-07-22 11:43:00,
2013-07-22 07:44:00,75.9,62.9,29.91,NE,45,1.3,2.7,64,0.00,,,0.00,VWS V14.01,2013-07-22 11:44:00,
2013-07-22 07:45:00,76.1,63.0,29.91,NE,45,2.0,2.0,64,0.00,,,0.00,VWS V14.01,2013-07-22 11:45:00,
2013-07-22 07:46:00,76.1,63.0,29.91,ENE,68,2.2,2.2,64,0.00,,,0.00,VWS V14.01,2013-07-22 11:46:00,
2013-07-22 07:48:00,76.1,63.0,29.91,NNE,22,1.3,1.3,64,0.00,,,0.00,VWS V14.01,2013-07-22 11:48:00,
2013-07-22 07:49:00,76.1,63.0,29.91,NE,45,1.3,2.7,64,0.00,,,0.00,VWS V14.01,2013-07-22 11:49:00,
2013-07-22 07:51:00,76.1,63.0,29.91,ENE,68,1.1,1.1,64,0.00,,,0.00,VWS V14.01,2013-07-22 11:51:00,
2013-07-22 07:52:00,76.1,63.0,29.91,ENE,68,0.0,1.1,64,0.00,,,0.00,VWS V14.01,2013-07-22 11:52:00,
2013-07-22 07:53:00,76.1,63.0,29.91,ENE,68,0.0,0.0,64,0.00,,,0.00,VWS V14.01,2013-07-22 11:53:00,
2013-07-22 07:54:00,76.1,63.0,29.91,ENE,68,2.0,2.0,64,0.00,,,0.00,VWS V14.01,2013-07-22 11:54:00,
2013-07-22 07:56:00,76.3,63.2,29.91,ENE,68,0.0,0.0,64,0.00,,,0.00,VWS V14.01,2013-07-22 11:56:00,
2013-07-22 07:57:00,76.3,63.2,29.91,NE,45,1.3,1.3,64,0.00,,,0.00,VWS V14.01,2013-07-22 11:57:00,
2013-07-22 07:58:00,76.3,63.2,29.91,East,90,0.0,0.0,64,0.00,,,0.00,VWS V14.01,2013-07-22 11:58:00,
2013-07-22 07:59:00,76.3,63.2,29.91,NNE,22,1.6,1.6,64,0.00,,,0.00,VWS V14.01,2013-07-22 11:59:00,
2013-07-22 08:00:00,76.3,63.2,29.91,NE,45,0.0,1.6,64,0.00,,,0.00,VWS V14.01,2013-07-22 12:00:00,
2013-07-22 08:01:00,76.3,63.2,29.91,NNE,22,1.3,1.6,64,0.00,,,0.00,VWS V14.01,2013-07-22 12:01:00,
2013-07-22 08:02:00,76.3,63.2,29.91,ENE,68,1.1,2.0,64,0.00,,,0.00,VWS V14.01,2013-07-22 12:02:00,
2013-07-22 08:03:00,76.3,63.2,29.91,NE,45,2.5,2.5,64,0.00,,,0.00,VWS V14.01,2013-07-22 12:03:00,
2013-07-22 08:04:00,76.3,62.8,29.91,NE,45,2.5,2.5,63,0.00,,,0.00,VWS V14.01,2013-07-22 12:04:00,
2013-07-22 08:05:00,76.3,62.8,29.91,NNE,22,1.1,1.1,63,0.00,,,0.00,VWS V14.01,2013-07-22 12:05:00,
2013-07-22 08:06:00,76.3,62.8,29.91,ENE,68,0.0,0.0,63,0.00,,,0.00,VWS V14.01,2013-07-22 12:06:00,
2013-07-22 08:07:00,76.5,62.9,29.91,ENE,68,1.1,1.1,63,0.00,,,0.00,VWS V14.01,2013-07-22 12:07:00,
2013-07-22 08:08:00,76.5,62.9,29.91,ENE,68,1.3,1.3,63,0.00,,,0.00,VWS V14.01,2013-07-22 12:08:00,
2013-07-22 08:09:00,76.5,62.9,29.91,NE,45,1.3,1.3,63,0.00,,,0.00,VWS V14.01,2013-07-22 12:09:00,
2013-07-22 08:10:00,76.5,62.9,29.91,NE,45,0.9,0.9,63,0.00,,,0.00,VWS V14.01,2013-07-22 12:10:00,
2013-07-22 08:11:00,76.6,63.6,29.91,ENE,68,1.1,1.1,64,0.00,,,0.00,VWS V14.01,2013-07-22 12:11:00,
2013-07-22 08:12:00,76.6,63.6,29.91,NE,45,1.6,1.6,64,0.00,,,0.00,VWS V14.01,2013-07-22 12:12:00,
2013-07-22 08:14:00,76.6,63.1,29.91,NNW,338,1.3,1.6,63,0.00,,,0.00,VWS V14.01,2013-07-22 12:14:00,
2013-07-22 08:15:00,76.6,63.1,29.91,NNE,22,2.2,2.5,63,0.00,,,0.00,VWS V14.01,2013-07-22 12:15:00,
2013-07-22 08:16:00,76.6,63.1,29.91,NNE,22,2.2,2.2,63,0.00,,,0.00,VWS V14.01,2013-07-22 12:16:00,
2013-07-22 08:17:00,76.5,62.9,29.91,NNE,22,1.1,2.2,63,0.00,,,0.00,VWS V14.01,2013-07-22 12:17:00,
2013-07-22 08:19:00,76.5,62.9,29.91,North,0,1.3,1.3,63,0.00,,,0.00,VWS V14.01,2013-07-22 12:19:00,
2013-07-22 08:20:00,76.6,63.1,29.91,NE,45,1.6,1.6,63,0.00,,,0.00,VWS V14.01,2013-07-22 12:20:00,
2013-07-22 08:21:00,76.6,63.1,29.91,NE,45,1.6,1.6,63,0.00,,,0.00,VWS V14.01,2013-07-22 12:21:00,
2013-07-22 08:23:00,76.5,62.9,29.91,NE,45,2.0,2.9,63,0.00,,,0.00,VWS V14.01,2013-07-22 12:23:00,
2013-07-22 08:24:00,76.5,62.9,29.91,NNE,22,2.7,2.7,63,0.00,,,0.00,VWS V14.01,2013-07-22 12:24:00,
2013-07-22 08:25:00,76.6,62.7,29.91,NE,45,2.0,2.7,62,0.00,,,0.00,VWS V14.01,2013-07-22 12:25:00,
2013-07-22 08:26:00,76.6,62.7,29.91,North,0,2.0,2.0,62,0.00,,,0.00,VWS V14.01,2013-07-22 12:26:00,
2013-07-22 08:28:00,76.8,62.8,29.91,NE,45,1.1,1.1,62,0.00,,,0.00,VWS V14.01,2013-07-22 12:28:00,
2013-07-22 08:29:00,76.8,62.8,29.91,NNE,22,2.0,2.0,62,0.00,,,0.00,VWS V14.01,2013-07-22 12:29:00,
2013-07-22 08:30:00,77.0,63.0,29.91,ENE,68,0.9,2.0,62,0.00,,,0.00,VWS V14.01,2013-07-22 12:30:00,
2013-07-22 08:31:00,77.0,63.0,29.91,NNE,22,3.1,3.1,62,0.00,,,0.00,VWS V14.01,2013-07-22 12:31:00,
2013-07-22 08:35:00,77.4,62.9,29.91,NE,45,1.3,2.0,61,0.00,,,0.00,VWS V14.01,2013-07-22 12:35:00,
2013-07-22 08:37:00,77.4,62.9,29.91,North,0,2.9,2.9,61,0.00,,,0.00,VWS V14.01,2013-07-22 12:37:00,
2013-07-22 08:40:00,77.4,62.9,29.91,ENE,68,0.9,2.0,61,0.00,,,0.00,VWS V14.01,2013-07-22 12:40:00,
2013-07-22 08:41:00,77.4,62.9,29.91,ENE,68,0.9,2.0,61,0.00,,,0.00,VWS V14.01,2013-07-22 12:41:00,
2013-07-22 08:42:00,77.4,62.9,29.91,ENE,68,0.9,0.9,61,0.00,,,0.00,VWS V14.01,2013-07-22 12:42:00,
2013-07-22 08:45:00,77.7,62.7,29.91,NE,45,2.0,2.0,60,0.00,,,0.00,VWS V14.01,2013-07-22 12:45:00,
2013-07-22 08:46:00,77.7,62.7,29.91,NE,45,2.0,2.0,60,0.00,,,0.00,VWS V14.01,2013-07-22 12:46:00,
2013-07-22 08:47:00,77.5,62.6,29.91,NNE,22,3.8,3.8,60,0.00,,,0.00,VWS V14.01,2013-07-22 12:47:00,
2013-07-22 08:50:00,77.7,62.7,29.91,NE,45,1.6,1.6,60,0.00,,,0.00,VWS V14.01,2013-07-22 12:50:00,
2013-07-22 08:51:00,77.9,62.9,29.91,NE,45,1.6,1.6,60,0.00,,,0.00,VWS V14.01,2013-07-22 12:51:00,
2013-07-22 08:52:00,77.9,62.9,29.91,NNE,22,3.8,3.8,60,0.00,,,0.00,VWS V14.01,2013-07-22 12:52:00,
2013-07-22 08:55:00,77.7,62.3,29.91,NNW,338,3.6,3.6,59,0.00,,,0.00,VWS V14.01,2013-07-22 12:55:00,
2013-07-22 08:56:00,77.7,62.3,29.91,NNW,338,3.6,3.6,59,0.00,,,0.00,VWS V14.01,2013-07-22 12:56:00,
2013-07-22 08:57:00,77.7,62.7,29.91,NE,45,1.3,3.1,60,0.00,,,0.00,VWS V14.01,2013-07-22 12:57:00,
2013-07-22 09:01:00,77.7,62.3,29.91,NNE,22,2.0,3.6,59,0.00,,,0.00,VWS V14.01,2013-07-22 13:01:00,
2013-07-22 09:03:00,77.7,62.3,29.91,NE,45,2.2,2.2,59,0.00,,,0.00,VWS V14.01,2013-07-22 13:03:00,
2013-07-22 09:06:00,77.7,62.3,29.91,ENE,68,0.0,2.7,59,0.00,,,0.00,VWS V14.01,2013-07-22 13:06:00,
2013-07-22 09:08:00,77.7,62.3,29.91,NE,45,2.5,2.5,59,0.00,,,0.00,VWS V14.01,2013-07-22 13:08:00,
2013-07-22 09:11:00,77.7,62.3,29.91,North,0,3.6,4.0,59,0.00,,,0.00,VWS V14.01,2013-07-22 13:11:00,
2013-07-22 09:12:00,77.7,61.8,29.91,NE,45,3.1,3.6,58,0.00,,,0.00,VWS V14.01,2013-07-22 13:12:00,
2013-07-22 09:13:00,77.7,61.8,29.91,NE,45,2.5,2.5,58,0.00,,,0.00,VWS V14.01,2013-07-22 13:13:00,
2013-07-22 09:16:00,77.7,62.3,29.91,North,0,2.0,2.0,59,0.00,,,0.00,VWS V14.01,2013-07-22 13:16:00,
2013-07-22 09:17:00,77.9,62.0,29.91,NNE,22,5.4,5.4,58,0.00,,,0.00,VWS V14.01,2013-07-22 13:17:00,
2013-07-22 09:18:00,77.9,62.0,29.91,North,0,0.9,0.9,58,0.00,,,0.00,VWS V14.01,2013-07-22 13:18:00,
2013-07-22 09:21:00,78.3,62.3,29.91,NE,45,4.0,4.0,58,0.00,,,0.00,VWS V14.01,2013-07-22 13:21:00,
2013-07-22 09:22:00,78.1,62.1,29.91,North,0,2.7,4.0,58,0.00,,,0.00,VWS V14.01,2013-07-22 13:22:00,
2013-07-22 09:23:00,78.1,62.1,29.91,NNE,22,2.0,2.0,58,0.00,,,0.00,VWS V14.01,2013-07-22 13:23:00,
2013-07-22 09:27:00,78.1,61.6,29.91,NNE,22,1.1,1.1,57,0.00,,,0.00,VWS V14.01,2013-07-22 13:27:00,
2013-07-22 09:28:00,78.3,61.8,29.91,NNE,22,3.4,3.4,57,0.00,,,0.00,VWS V14.01,2013-07-22 13:28:00,
2013-07-22 09:32:00,78.4,62.0,29.91,NNE,22,2.0,2.5,57,0.00,,,0.00,VWS V14.01,2013-07-22 13:32:00,
2013-07-22 09:33:00,78.4,62.0,29.91,NNE,22,2.0,2.0,57,0.00,,,0.00,VWS V14.01,2013-07-22 13:33:00,
2013-07-22 09:37:00,78.3,61.3,29.91,North,0,3.4,3.4,56,0.00,,,0.00,VWS V14.01,2013-07-22 13:37:00,
2013-07-22 09:38:00,78.3,61.3,29.91,ENE,68,2.5,3.4,56,0.00,,,0.00,VWS V14.01,2013-07-22 13:38:00,
2013-07-22 09:39:00,78.3,61.3,29.91,NNE,22,2.9,2.9,56,0.00,,,0.00,VWS V14.01,2013-07-22 13:39:00,
2013-07-22 09:43:00,78.6,61.6,29.91,NE,45,1.3,1.3,56,0.00,,,0.00,VWS V14.01,2013-07-22 13:43:00,
2013-07-22 09:44:00,78.6,61.6,29.91,NW,315,0.0,0.0,56,0.00,,,0.00,VWS V14.01,2013-07-22 13:44:00,
2013-07-22 09:49:00,78.8,61.3,29.94,NE,45,2.5,2.9,55,0.00,,,0.00,VWS V14.01,2013-07-22 13:49:00,
2013-07-22 09:50:00,78.8,61.3,29.94,NE,45,1.6,1.6,55,0.00,,,0.00,VWS V14.01,2013-07-22 13:50:00,